sensor_id;sensor_type;location;lat;lon;timestamp;P1;durP1;ratioP1;P2;durP2;ratioP2
19671;SDS011;9983;51.114;13.788;2023-01-09T00:00:35;15.25;;;11.43;;
19671;SDS011;9983;51.114;13.788;2023-01-09T00:05:36;17.92;;;11.48;;
19671;SDS011;9983;51.114;13.788;2023-01-09T00:10:36;14.95;;;11.40;;
19671;SDS011;9983;51.114;13.788;2023-01-09T00:15:36;15.35;;;11.63;;
19671;SDS011;9983;51.114;13.788;2023-01-09T00:20:37;16.13;;;11.25;;
19671;SDS011;9983;51.114;13.788;2023-01-09T00:25:37;14.02;;;10.75;;
19671;SDS011;9983;51.114;13.788;2023-01-09T00:30:38;13.50;;;10.20;;
19671;SDS011;9983;51.114;13.788;2023-01-09T00:35:38;15.98;;;11.23;;
19671;SDS011;9983;51.114;13.788;2023-01-09T00:40:38;13.95;;;10.50;;
19671;SDS011;9983;51.114;13.788;2023-01-09T00:45:38;16.67;;;11.32;;
19671;SDS011;9983;51.114;13.788;2023-01-09T00:50:39;15.07;;;10.70;;
19671;SDS011;9983;51.114;13.788;2023-01-09T00:55:39;15.90;;;11.23;;
19671;SDS011;9983;51.114;13.788;2023-01-09T01:00:40;15.38;;;10.88;;
19671;SDS011;9983;51.114;13.788;2023-01-09T01:05:40;17.75;;;11.52;;
19671;SDS011;9983;51.114;13.788;2023-01-09T01:11:03;19.60;;;12.20;;
19671;SDS011;9983;51.114;13.788;2023-01-09T01:16:06;17.58;;;10.95;;
19671;SDS011;9983;51.114;13.788;2023-01-09T01:21:08;18.38;;;11.38;;
19671;SDS011;9983;51.114;13.788;2023-01-09T01:26:11;18.83;;;11.95;;
19671;SDS011;9983;51.114;13.788;2023-01-09T01:31:17;18.05;;;11.27;;
19671;SDS011;9983;51.114;13.788;2023-01-09T01:36:18;15.70;;;10.40;;
19671;SDS011;9983;51.114;13.788;2023-01-09T01:41:18;14.75;;;10.82;;
19671;SDS011;9983;51.114;13.788;2023-01-09T01:46:28;17.13;;;11.02;;
19671;SDS011;9983;51.114;13.788;2023-01-09T01:51:31;14.43;;;9.88;;
19671;SDS011;9983;51.114;13.788;2023-01-09T01:56:36;16.65;;;10.85;;
19671;SDS011;9983;51.114;13.788;2023-01-09T02:01:42;16.58;;;11.32;;
19671;SDS011;9983;51.114;13.788;2023-01-09T02:06:45;17.35;;;10.90;;
19671;SDS011;9983;51.114;13.788;2023-01-09T02:11:48;16.65;;;10.73;;
19671;SDS011;9983;51.114;13.788;2023-01-09T02:16:53;16.80;;;10.98;;
19671;SDS011;9983;51.114;13.788;2023-01-09T02:33:08;15.98;;;10.32;;
19671;SDS011;9983;51.114;13.788;2023-01-09T02:43:39;15.90;;;10.30;;
19671;SDS011;9983;51.114;13.788;2023-01-09T02:48:40;14.32;;;10.35;;
19671;SDS011;9983;51.114;13.788;2023-01-09T02:54:00;15.18;;;10.45;;
19671;SDS011;9983;51.114;13.788;2023-01-09T02:59:13;13.10;;;9.65;;
19671;SDS011;9983;51.114;13.788;2023-01-09T03:09:37;15.98;;;10.20;;
19671;SDS011;9983;51.114;13.788;2023-01-09T03:14:54;14.38;;;10.05;;
19671;SDS011;9983;51.114;13.788;2023-01-09T03:19:57;14.43;;;10.45;;
19671;SDS011;9983;51.114;13.788;2023-01-09T03:25:01;15.30;;;10.82;;
19671;SDS011;9983;51.114;13.788;2023-01-09T03:30:01;16.33;;;10.80;;
19671;SDS011;9983;51.114;13.788;2023-01-09T03:35:02;18.27;;;11.55;;
19671;SDS011;9983;51.114;13.788;2023-01-09T03:40:02;14.88;;;10.40;;
19671;SDS011;9983;51.114;13.788;2023-01-09T03:45:03;17.92;;;11.75;;
19671;SDS011;9983;51.114;13.788;2023-01-09T03:50:04;19.63;;;11.65;;
19671;SDS011;9983;51.114;13.788;2023-01-09T03:55:05;15.77;;;11.20;;
19671;SDS011;9983;51.114;13.788;2023-01-09T04:00:06;18.70;;;11.82;;
19671;SDS011;9983;51.114;13.788;2023-01-09T04:05:07;20.77;;;11.82;;
19671;SDS011;9983;51.114;13.788;2023-01-09T04:10:08;18.60;;;12.35;;
19671;SDS011;9983;51.114;13.788;2023-01-09T04:15:08;18.70;;;11.32;;
19671;SDS011;9983;51.114;13.788;2023-01-09T04:20:09;16.88;;;10.52;;
19671;SDS011;9983;51.114;13.788;2023-01-09T04:25:10;17.67;;;11.88;;
19671;SDS011;9983;51.114;13.788;2023-01-09T04:30:10;20.90;;;12.55;;
19671;SDS011;9983;51.114;13.788;2023-01-09T04:35:11;21.27;;;13.02;;
19671;SDS011;9983;51.114;13.788;2023-01-09T04:40:11;20.60;;;13.25;;
19671;SDS011;9983;51.114;13.788;2023-01-09T04:45:12;19.50;;;12.77;;
19671;SDS011;9983;51.114;13.788;2023-01-09T04:50:14;21.17;;;12.65;;
19671;SDS011;9983;51.114;13.788;2023-01-09T04:55:15;23.42;;;13.40;;
19671;SDS011;9983;51.114;13.788;2023-01-09T05:00:15;18.90;;;13.50;;
19671;SDS011;9983;51.114;13.788;2023-01-09T05:05:15;17.33;;;11.93;;
19671;SDS011;9983;51.114;13.788;2023-01-09T05:10:15;19.55;;;12.70;;
19671;SDS011;9983;51.114;13.788;2023-01-09T05:15:16;19.30;;;12.60;;
19671;SDS011;9983;51.114;13.788;2023-01-09T05:20:16;21.85;;;13.30;;
19671;SDS011;9983;51.114;13.788;2023-01-09T05:25:16;18.10;;;12.13;;
19671;SDS011;9983;51.114;13.788;2023-01-09T05:30:17;16.27;;;11.57;;
19671;SDS011;9983;51.114;13.788;2023-01-09T05:35:17;16.55;;;10.90;;
19671;SDS011;9983;51.114;13.788;2023-01-09T05:40:17;17.27;;;10.30;;
19671;SDS011;9983;51.114;13.788;2023-01-09T05:45:18;21.38;;;12.98;;
19671;SDS011;9983;51.114;13.788;2023-01-09T05:50:18;16.98;;;11.43;;
19671;SDS011;9983;51.114;13.788;2023-01-09T05:55:18;20.83;;;12.27;;
19671;SDS011;9983;51.114;13.788;2023-01-09T06:00:19;18.20;;;11.90;;
19671;SDS011;9983;51.114;13.788;2023-01-09T06:05:19;20.02;;;12.05;;
19671;SDS011;9983;51.114;13.788;2023-01-09T06:10:20;20.15;;;12.00;;
19671;SDS011;9983;51.114;13.788;2023-01-09T06:15:20;18.63;;;11.77;;
19671;SDS011;9983;51.114;13.788;2023-01-09T06:20:20;17.55;;;11.80;;
19671;SDS011;9983;51.114;13.788;2023-01-09T06:25:21;21.83;;;12.27;;
19671;SDS011;9983;51.114;13.788;2023-01-09T06:30:21;17.95;;;10.13;;
19671;SDS011;9983;51.114;13.788;2023-01-09T06:35:21;17.10;;;11.48;;
19671;SDS011;9983;51.114;13.788;2023-01-09T06:40:21;16.83;;;11.13;;
19671;SDS011;9983;51.114;13.788;2023-01-09T06:45:21;16.45;;;10.82;;
19671;SDS011;9983;51.114;13.788;2023-01-09T06:50:22;16.40;;;11.00;;
19671;SDS011;9983;51.114;13.788;2023-01-09T06:55:22;16.33;;;10.27;;
19671;SDS011;9983;51.114;13.788;2023-01-09T07:00:22;15.68;;;10.65;;
19671;SDS011;9983;51.114;13.788;2023-01-09T07:05:23;15.18;;;10.35;;
19671;SDS011;9983;51.114;13.788;2023-01-09T07:10:23;16.92;;;10.38;;
19671;SDS011;9983;51.114;13.788;2023-01-09T07:15:23;12.98;;;9.23;;
19671;SDS011;9983;51.114;13.788;2023-01-09T07:20:23;13.90;;;9.90;;
19671;SDS011;9983;51.114;13.788;2023-01-09T07:25:24;13.02;;;9.30;;
19671;SDS011;9983;51.114;13.788;2023-01-09T07:30:24;11.80;;;8.98;;
19671;SDS011;9983;51.114;13.788;2023-01-09T07:35:25;14.25;;;8.70;;
19671;SDS011;9983;51.114;13.788;2023-01-09T07:40:25;14.45;;;9.68;;
19671;SDS011;9983;51.114;13.788;2023-01-09T07:45:26;15.38;;;9.52;;
19671;SDS011;9983;51.114;13.788;2023-01-09T07:50:26;14.18;;;9.35;;
19671;SDS011;9983;51.114;13.788;2023-01-09T07:55:26;13.93;;;9.43;;
19671;SDS011;9983;51.114;13.788;2023-01-09T08:00:26;13.40;;;9.13;;
19671;SDS011;9983;51.114;13.788;2023-01-09T08:05:27;11.98;;;9.00;;
19671;SDS011;9983;51.114;13.788;2023-01-09T08:10:27;11.10;;;8.02;;
19671;SDS011;9983;51.114;13.788;2023-01-09T08:15:28;11.23;;;8.05;;
19671;SDS011;9983;51.114;13.788;2023-01-09T08:20:28;12.13;;;8.37;;
19671;SDS011;9983;51.114;13.788;2023-01-09T08:25:28;10.00;;;7.33;;
19671;SDS011;9983;51.114;13.788;2023-01-09T08:30:28;10.80;;;7.55;;
19671;SDS011;9983;51.114;13.788;2023-01-09T08:35:29;10.45;;;7.60;;
19671;SDS011;9983;51.114;13.788;2023-01-09T08:40:29;8.18;;;6.13;;
19671;SDS011;9983;51.114;13.788;2023-01-09T08:45:29;8.90;;;6.03;;
19671;SDS011;9983;51.114;13.788;2023-01-09T08:50:49;6.95;;;5.07;;
19671;SDS011;9983;51.114;13.788;2023-01-09T08:55:49;7.78;;;5.22;;
19671;SDS011;9983;51.114;13.788;2023-01-09T09:00:50;6.20;;;4.70;;
19671;SDS011;9983;51.114;13.788;2023-01-09T09:05:50;5.35;;;4.65;;
19671;SDS011;9983;51.114;13.788;2023-01-09T09:10:50;5.70;;;4.70;;
19671;SDS011;9983;51.114;13.788;2023-01-09T09:15:51;6.30;;;5.03;;
19671;SDS011;9983;51.114;13.788;2023-01-09T09:20:51;6.28;;;4.63;;
19671;SDS011;9983;51.114;13.788;2023-01-09T09:25:51;4.93;;;4.38;;
19671;SDS011;9983;51.114;13.788;2023-01-09T09:30:51;6.32;;;4.88;;
19671;SDS011;9983;51.114;13.788;2023-01-09T09:35:52;5.13;;;4.10;;
19671;SDS011;9983;51.114;13.788;2023-01-09T09:46:10;7.88;;;4.40;;
19671;SDS011;9983;51.114;13.788;2023-01-09T09:51:33;6.60;;;4.95;;
19671;SDS011;9983;51.114;13.788;2023-01-09T09:56:46;5.25;;;4.00;;
19671;SDS011;9983;51.114;13.788;2023-01-09T10:01:56;6.18;;;4.30;;
19671;SDS011;9983;51.114;13.788;2023-01-09T10:07:36;4.70;;;3.70;;
19671;SDS011;9983;51.114;13.788;2023-01-09T10:12:53;6.65;;;3.47;;
19671;SDS011;9983;51.114;13.788;2023-01-09T10:39:49;2.80;;;2.45;;
19671;SDS011;9983;51.114;13.788;2023-01-09T10:50:23;1.80;;;1.70;;
19671;SDS011;9983;51.114;13.788;2023-01-09T10:55:34;0.85;;;0.85;;
19671;SDS011;9983;51.114;13.788;2023-01-09T11:00:41;1.42;;;1.20;;
19671;SDS011;9983;51.114;13.788;2023-01-09T11:05:42;2.05;;;1.25;;
19671;SDS011;9983;51.114;13.788;2023-01-09T11:10:44;1.15;;;1.15;;
19671;SDS011;9983;51.114;13.788;2023-01-09T11:21:50;1.45;;;1.20;;
19671;SDS011;9983;51.114;13.788;2023-01-09T11:26:34;0.70;;;0.70;;
19671;SDS011;9983;51.114;13.788;2023-01-09T11:31:34;1.08;;;1.08;;
19671;SDS011;9983;51.114;13.788;2023-01-09T11:36:35;1.10;;;1.00;;
19671;SDS011;9983;51.114;13.788;2023-01-09T11:41:35;1.00;;;0.90;;
19671;SDS011;9983;51.114;13.788;2023-01-09T11:51:38;0.68;;;0.60;;
19671;SDS011;9983;51.114;13.788;2023-01-09T11:56:38;0.57;;;0.57;;
19671;SDS011;9983;51.114;13.788;2023-01-09T12:02:16;0.52;;;0.52;;
19671;SDS011;9983;51.114;13.788;2023-01-09T12:12:52;0.88;;;0.30;;
19671;SDS011;9983;51.114;13.788;2023-01-09T12:18:20;1.48;;;0.60;;
19671;SDS011;9983;51.114;13.788;2023-01-09T12:29:02;0.30;;;0.30;;
19671;SDS011;9983;51.114;13.788;2023-01-09T12:34:23;0.90;;;0.70;;
19671;SDS011;9983;51.114;13.788;2023-01-09T12:39:45;0.52;;;0.28;;
19671;SDS011;9983;51.114;13.788;2023-01-09T12:55:14;2.15;;;0.80;;
19671;SDS011;9983;51.114;13.788;2023-01-09T13:00:22;1.17;;;0.45;;
19671;SDS011;9983;51.114;13.788;2023-01-09T13:05:27;3.33;;;0.60;;
19671;SDS011;9983;51.114;13.788;2023-01-09T13:10:35;1.83;;;0.88;;
19671;SDS011;9983;51.114;13.788;2023-01-09T13:15:46;1.23;;;0.60;;
19671;SDS011;9983;51.114;13.788;2023-01-09T13:20:52;0.85;;;0.68;;
19671;SDS011;9983;51.114;13.788;2023-01-09T13:25:56;0.98;;;0.50;;
19671;SDS011;9983;51.114;13.788;2023-01-09T13:36:27;1.20;;;0.28;;
19671;SDS011;9983;51.114;13.788;2023-01-09T13:41:30;0.50;;;0.50;;
19671;SDS011;9983;51.114;13.788;2023-01-09T13:46:53;3.20;;;0.70;;
19671;SDS011;9983;51.114;13.788;2023-01-09T13:51:57;0.93;;;0.50;;
19671;SDS011;9983;51.114;13.788;2023-01-09T14:07:34;0.77;;;0.65;;
19671;SDS011;9983;51.114;13.788;2023-01-09T14:12:39;1.67;;;0.70;;
19671;SDS011;9983;51.114;13.788;2023-01-09T14:17:41;0.60;;;0.60;;
19671;SDS011;9983;51.114;13.788;2023-01-09T14:22:41;0.93;;;0.60;;
19671;SDS011;9983;51.114;13.788;2023-01-09T14:27:48;0.93;;;0.73;;
19671;SDS011;9983;51.114;13.788;2023-01-09T14:38:36;5.03;;;0.80;;
19671;SDS011;9983;51.114;13.788;2023-01-09T14:43:56;0.60;;;0.60;;
19671;SDS011;9983;51.114;13.788;2023-01-09T14:49:02;0.80;;;0.65;;
19671;SDS011;9983;51.114;13.788;2023-01-09T14:54:14;0.68;;;0.68;;
19671;SDS011;9983;51.114;13.788;2023-01-09T14:59:23;1.00;;;0.50;;
19671;SDS011;9983;51.114;13.788;2023-01-09T15:04:33;0.65;;;0.55;;
19671;SDS011;9983;51.114;13.788;2023-01-09T15:09:45;1.90;;;0.77;;
19671;SDS011;9983;51.114;13.788;2023-01-09T15:14:49;0.88;;;0.80;;
19671;SDS011;9983;51.114;13.788;2023-01-09T15:19:52;0.70;;;0.60;;
19671;SDS011;9983;51.114;13.788;2023-01-09T15:24:53;1.10;;;0.60;;
19671;SDS011;9983;51.114;13.788;2023-01-09T15:29:54;0.73;;;0.73;;
19671;SDS011;9983;51.114;13.788;2023-01-09T15:34:54;0.70;;;0.70;;
19671;SDS011;9983;51.114;13.788;2023-01-09T15:39:56;0.55;;;0.55;;
19671;SDS011;9983;51.114;13.788;2023-01-09T15:45:00;0.73;;;0.63;;
19671;SDS011;9983;51.114;13.788;2023-01-09T15:50:01;0.80;;;0.57;;
19671;SDS011;9983;51.114;13.788;2023-01-09T15:55:14;1.50;;;1.00;;
19671;SDS011;9983;51.114;13.788;2023-01-09T16:00:35;3.47;;;1.20;;
19671;SDS011;9983;51.114;13.788;2023-01-09T16:05:41;2.00;;;1.10;;
19671;SDS011;9983;51.114;13.788;2023-01-09T16:10:43;1.48;;;0.93;;
19671;SDS011;9983;51.114;13.788;2023-01-09T16:15:49;1.25;;;0.90;;
19671;SDS011;9983;51.114;13.788;2023-01-09T16:20:59;1.35;;;0.98;;
19671;SDS011;9983;51.114;13.788;2023-01-09T16:26:13;0.77;;;0.77;;
19671;SDS011;9983;51.114;13.788;2023-01-09T16:31:29;1.05;;;0.88;;
19671;SDS011;9983;51.114;13.788;2023-01-09T16:36:30;1.20;;;0.88;;
19671;SDS011;9983;51.114;13.788;2023-01-09T16:41:32;1.23;;;1.02;;
19671;SDS011;9983;51.114;13.788;2023-01-09T16:46:51;0.77;;;0.77;;
19671;SDS011;9983;51.114;13.788;2023-01-09T16:51:52;3.42;;;1.20;;
19671;SDS011;9983;51.114;13.788;2023-01-09T16:56:53;1.52;;;1.23;;
19671;SDS011;9983;51.114;13.788;2023-01-09T17:01:54;1.80;;;0.90;;
19671;SDS011;9983;51.114;13.788;2023-01-09T17:06:54;1.65;;;0.75;;
19671;SDS011;9983;51.114;13.788;2023-01-09T17:11:54;1.08;;;0.80;;
19671;SDS011;9983;51.114;13.788;2023-01-09T17:16:55;1.98;;;1.02;;
19671;SDS011;9983;51.114;13.788;2023-01-09T17:21:55;2.15;;;1.15;;
19671;SDS011;9983;51.114;13.788;2023-01-09T17:26:55;1.40;;;1.10;;
19671;SDS011;9983;51.114;13.788;2023-01-09T17:32:15;1.73;;;1.17;;
19671;SDS011;9983;51.114;13.788;2023-01-09T17:37:17;2.58;;;1.23;;
19671;SDS011;9983;51.114;13.788;2023-01-09T17:42:18;1.77;;;0.95;;
19671;SDS011;9983;51.114;13.788;2023-01-09T17:47:18;0.95;;;0.85;;
19671;SDS011;9983;51.114;13.788;2023-01-09T17:52:18;1.98;;;1.20;;
19671;SDS011;9983;51.114;13.788;2023-01-09T17:57:20;0.90;;;0.90;;
19671;SDS011;9983;51.114;13.788;2023-01-09T18:02:21;1.30;;;1.10;;
19671;SDS011;9983;51.114;13.788;2023-01-09T18:07:21;1.20;;;0.93;;
19671;SDS011;9983;51.114;13.788;2023-01-09T18:12:21;1.33;;;1.23;;
19671;SDS011;9983;51.114;13.788;2023-01-09T18:17:21;1.40;;;0.98;;
19671;SDS011;9983;51.114;13.788;2023-01-09T18:22:22;1.80;;;1.02;;
19671;SDS011;9983;51.114;13.788;2023-01-09T18:27:22;1.52;;;1.30;;
19671;SDS011;9983;51.114;13.788;2023-01-09T18:32:22;2.53;;;1.67;;
19671;SDS011;9983;51.114;13.788;2023-01-09T18:37:23;1.58;;;1.33;;
19671;SDS011;9983;51.114;13.788;2023-01-09T18:42:23;1.90;;;1.50;;
19671;SDS011;9983;51.114;13.788;2023-01-09T18:47:24;1.80;;;1.60;;
19671;SDS011;9983;51.114;13.788;2023-01-09T18:52:24;2.00;;;1.20;;
19671;SDS011;9983;51.114;13.788;2023-01-09T18:57:24;1.20;;;1.20;;
19671;SDS011;9983;51.114;13.788;2023-01-09T19:02:25;1.63;;;1.48;;
19671;SDS011;9983;51.114;13.788;2023-01-09T19:07:25;2.28;;;1.50;;
19671;SDS011;9983;51.114;13.788;2023-01-09T19:12:25;1.65;;;1.35;;
19671;SDS011;9983;51.114;13.788;2023-01-09T19:17:25;1.27;;;1.17;;
19671;SDS011;9983;51.114;13.788;2023-01-09T19:22:26;1.40;;;1.30;;
19671;SDS011;9983;51.114;13.788;2023-01-09T19:27:29;2.05;;;1.35;;
19671;SDS011;9983;51.114;13.788;2023-01-09T19:32:29;1.98;;;1.75;;
19671;SDS011;9983;51.114;13.788;2023-01-09T19:37:30;1.45;;;1.33;;
19671;SDS011;9983;51.114;13.788;2023-01-09T19:42:30;1.50;;;1.40;;
19671;SDS011;9983;51.114;13.788;2023-01-09T19:47:33;2.17;;;1.50;;
19671;SDS011;9983;51.114;13.788;2023-01-09T19:52:36;2.03;;;1.75;;
19671;SDS011;9983;51.114;13.788;2023-01-09T19:57:36;2.47;;;1.50;;
19671;SDS011;9983;51.114;13.788;2023-01-09T20:02:37;2.28;;;1.20;;
19671;SDS011;9983;51.114;13.788;2023-01-09T20:07:37;1.50;;;1.20;;
19671;SDS011;9983;51.114;13.788;2023-01-09T20:12:37;3.78;;;1.58;;
19671;SDS011;9983;51.114;13.788;2023-01-09T20:17:37;3.13;;;1.70;;
19671;SDS011;9983;51.114;13.788;2023-01-09T20:22:38;1.60;;;1.50;;
19671;SDS011;9983;51.114;13.788;2023-01-09T20:27:38;1.80;;;1.38;;
19671;SDS011;9983;51.114;13.788;2023-01-09T20:32:38;2.40;;;1.65;;
19671;SDS011;9983;51.114;13.788;2023-01-09T20:37:38;2.50;;;1.60;;
19671;SDS011;9983;51.114;13.788;2023-01-09T20:42:39;2.47;;;1.60;;
19671;SDS011;9983;51.114;13.788;2023-01-09T20:47:39;2.85;;;1.65;;
19671;SDS011;9983;51.114;13.788;2023-01-09T20:52:39;3.80;;;1.67;;
19671;SDS011;9983;51.114;13.788;2023-01-09T20:57:39;1.15;;;1.10;;
19671;SDS011;9983;51.114;13.788;2023-01-09T21:02:40;1.40;;;1.30;;
19671;SDS011;9983;51.114;13.788;2023-01-09T21:07:40;2.17;;;1.40;;
19671;SDS011;9983;51.114;13.788;2023-01-09T21:12:40;1.85;;;1.75;;
19671;SDS011;9983;51.114;13.788;2023-01-09T21:17:41;1.88;;;1.20;;
19671;SDS011;9983;51.114;13.788;2023-01-09T21:22:42;1.95;;;1.50;;
19671;SDS011;9983;51.114;13.788;2023-01-09T21:27:43;1.58;;;1.33;;
19671;SDS011;9983;51.114;13.788;2023-01-09T21:32:45;3.55;;;1.45;;
19671;SDS011;9983;51.114;13.788;2023-01-09T21:37:46;1.58;;;1.33;;
19671;SDS011;9983;51.114;13.788;2023-01-09T21:42:46;1.33;;;1.23;;
19671;SDS011;9983;51.114;13.788;2023-01-09T21:48:05;1.00;;;1.00;;
19671;SDS011;9983;51.114;13.788;2023-01-09T21:53:06;1.55;;;1.42;;
19671;SDS011;9983;51.114;13.788;2023-01-09T21:58:07;1.60;;;1.10;;
19671;SDS011;9983;51.114;13.788;2023-01-09T22:03:11;2.20;;;1.20;;
19671;SDS011;9983;51.114;13.788;2023-01-09T22:08:15;1.33;;;1.13;;
19671;SDS011;9983;51.114;13.788;2023-01-09T22:13:15;1.17;;;1.08;;
19671;SDS011;9983;51.114;13.788;2023-01-09T22:18:16;1.10;;;1.10;;
19671;SDS011;9983;51.114;13.788;2023-01-09T22:23:16;2.75;;;0.93;;
19671;SDS011;9983;51.114;13.788;2023-01-09T22:28:17;1.17;;;1.08;;
19671;SDS011;9983;51.114;13.788;2023-01-09T22:33:17;1.42;;;0.98;;
19671;SDS011;9983;51.114;13.788;2023-01-09T22:38:17;1.23;;;1.13;;
19671;SDS011;9983;51.114;13.788;2023-01-09T22:43:18;1.15;;;1.05;;
19671;SDS011;9983;51.114;13.788;2023-01-09T22:48:18;1.23;;;1.10;;
19671;SDS011;9983;51.114;13.788;2023-01-09T22:53:18;1.53;;;1.20;;
19671;SDS011;9983;51.114;13.788;2023-01-09T22:58:18;1.58;;;1.30;;
19671;SDS011;9983;51.114;13.788;2023-01-09T23:03:19;1.40;;;1.30;;
19671;SDS011;9983;51.114;13.788;2023-01-09T23:08:19;1.50;;;1.40;;
19671;SDS011;9983;51.114;13.788;2023-01-09T23:13:20;3.13;;;1.20;;
19671;SDS011;9983;51.114;13.788;2023-01-09T23:18:20;1.15;;;1.10;;
19671;SDS011;9983;51.114;13.788;2023-01-09T23:23:22;1.35;;;1.20;;
19671;SDS011;9983;51.114;13.788;2023-01-09T23:28:24;1.20;;;1.15;;
19671;SDS011;9983;51.114;13.788;2023-01-09T23:33:25;2.35;;;1.90;;
19671;SDS011;9983;51.114;13.788;2023-01-09T23:38:25;5.28;;;2.20;;
19671;SDS011;9983;51.114;13.788;2023-01-09T23:43:26;1.50;;;1.40;;
19671;SDS011;9983;51.114;13.788;2023-01-09T23:48:26;1.20;;;1.15;;
19671;SDS011;9983;51.114;13.788;2023-01-09T23:53:26;3.17;;;1.50;;
19671;SDS011;9983;51.114;13.788;2023-01-09T23:58:31;1.80;;;1.70;;
